Tiempo atmosférico en la estación meteorológica de Yecla, Murcia (640 m.)



Fecha
DESCASC
Temp. máxima en grados centígrados (hora)
DESCASC
Temp. mínima en grados centígrados (hora)
DESCASC
Temp. media en grados centígrados
DESCASC
Racha de viento máxima en m/sg (hora)
DESCASC
Velocidad máxima media en intervalos de 10 minutos(hora)
DESCASC
Precipitaciones diarias en mm
DESCASC
Precipitaciones de 00:00 a 06:00 en mm
DESCASC
Precipitaciones de 06:00 a 12:00 en mm
DESCASC
Precipitaciones de 12:00 a 18:00 en mm
DESCASC
Precipitaciones de 18:00 a 24:00 en mm
DESCASC
16-04-2019 23.2 (15:40) 11.2 (02:30) 17.2 14.17 (05:10) 8.06 (05:00) 0 0 0 0 0
15-04-2019 24.1 (15:20) 10.2 (07:50) 17.2 8.06 (14:50) 4.44 (15:00) 0 0 0 0 0
14-04-2019 25.3 (17:50) 6.8 (00:00) 16 10 (14:00) 5.28 (08:00) 0 0 0 0 0
13-04-2019 22 (17:20) 3.1 (00:00) 12.5 12.5 (15:20) 6.11 (18:20) 0 0 0 0 0
12-04-2019 18.5 (17:20) 7.3 (00:00) 12.9 12.22 (18:20) 6.67 (18:20) 0 0 0 0 0
11-04-2019 18.4 (17:10) 6 (00:00) 12.2 13.61 (11:30) 7.22 (17:30) 0 0 0 0 0
10-04-2019 14.1 (15:30) 7.7 (00:00) 10.9 18.06 (04:20) 10.56 (04:30) 0 0 0 0 0
09-04-2019 14.8 (15:20) 7 (00:00) 10.9 15.28 (09:10) 9.17 (18:40) 5.4 2.4 0 3 0
08-04-2019 18 (16:20) 6 (00:00) 12 9.17 (17:00) 5.56 (17:00) 2.8 0 0 2.6 0.2
07-04-2019 14.7 (16:50) 3.9 (00:00) 9.3 18.33 (11:30) 10 (12:30) 0.8 0 0.8 0 0
06-04-2019 14.2 (15:30) 3.4 (00:00) 8.8 19.17 (16:40) 9.72 (15:00) 1 0 0 1 0
05-04-2019 16.3 (14:00) 4.7 (00:00) 10.5 13.06 (21:00) 8.06 (21:00) 4 0 0 4 0
04-04-2019 16.8 (17:10) 2.6 (00:00) 9.7 9.17 (18:30) 6.11 (20:50) 0 0 0 0 0
03-04-2019 21.1 (17:20) 5.4 (00:00) 13.3 12.22 (23:10) 7.5 (18:40) 0 0 0 0 0
02-04-2019 19.2 (15:20) 7.4 (00:00) 13.3 8.61 (15:20) 5 (15:30) 0.2 0 0 0 0.2
01-04-2019 15.1 (15:10) 8.8 (00:00) 12 7.22 (16:50) 4.72 (16:50) 3.8 1 0 0 2.8
31-03-2019 9.7 (23:30) 6.7 (00:00) 8.2 10 (15:30) 6.39 (16:50) 15 0.8 7.6 5.4 1.2
30-03-2019 18.3 (15:40) 0.4 (00:00) 9.3 10.28 (16:10) 6.94 (17:00) 0 0 0 0 0
29-03-2019 16.6 (15:20) -1.5 (-00:0) 7.6 9.17 (12:20) 5 (12:20) 0 0 0 0 0
28-03-2019 18 (14:10) -3.2 (-00:0) 7.4 9.17 (18:00) 5.28 (18:00) 0 0 0 0 0
27-03-2019 16.8 (15:40) -0.9 (-00:0) 7.9 9.72 (16:30) 5.83 (16:50) 0 0 0 0 0
26-03-2019 17.2 (16:00) -0.3 (00:00) 8.5 13.61 (10:40) 8.61 (10:40) 0 0 0 0 0
25-03-2019 21.7 (14:50) 0 (00:00) 10.9 6.67 (13:00) 4.17 (17:00) 0 0 0 0 0
24-03-2019 20.3 (16:00) 1 (00:00) 10.6 7.78 (15:40) 4.44 (15:40) 0 0 0 0 0
23-03-2019 14.8 (16:20) 4.8 (00:00) 9.8 8.33 (13:10) 5.28 (13:10) 0 0 0 0 0
22-03-2019 15.3 (15:00) 2 (00:00) 8.7 12.78 (15:00) 8.06 (16:00) 0 0 0 0 0
21-03-2019 13.5 (14:20) -0.9 (-00:0) 6.3 12.5 (12:10) 7.78 (13:00) 0 0 0 0 0
20-03-2019 12.9 (17:00) 1.9 (00:00) 7.4 9.17 (19:30) 6.11 (18:40) 0 0 0 0 0
19-03-2019 13.8 (15:00) 3.6 (00:00) 8.7 13.33 (12:20) 6.67 (11:40) 0 0 0 0 0

Gráficas

Temp. máximas Temp. mínimas Temp. medias Precipitaciones Rachas de viento máximas Velocidades máximas media en intervalos de 10 minutos

Datos horarios

Fecha y hora oficial Temperatura (ºC) Velocidad del viento (km/h) Dirección del viento Racha (km/h) Dirección de racha Precipitación (mm) Presión (hPa) Tendencia (hPa) Humedad (%)
2019-04-17 23:00:00 11.6 19 Nordeste 27 Nordeste 0 941.3 1.4 81
2019-04-17 22:00:00 11.8 17 Nordeste 29 Nordeste 0 940.6 0.7 81
2019-04-17 21:00:00 12.5 18 Nordeste 30 Nordeste 0 940.2 0.2 76
2019-04-17 20:00:00 14.2 21 Nordeste 30 Nordeste 0 939.9 -0.5 69
2019-04-17 19:00:00 17.2 17 Nordeste 31 Nordeste 0 939.9 -1.2 55
2019-04-17 18:00:00 19.2 16 Sudeste 27 Sur 0 940 -1.5 34
2019-04-17 17:00:00 20 12 Sur 24 Sudeste 0 940.4 -1.9 38
2019-04-17 16:00:00 21.1 15 Sudeste 28 Este 0 941.1 -1.9 35
2019-04-17 15:00:00 20.7 13 Sur 26 Sudeste 0 941.5 -1.9 33
2019-04-17 14:00:00 20 15 Sur 30 Sur 0 942.3 -1.3 33
2019-04-17 13:00:00 18.4 9 Sur 17 Sudeste 0 943 -1.1 45
2019-04-17 12:00:00 16.6 6 Sudeste 22 Nordeste 0 943.4 -0.8 53
2019-04-17 11:00:00 14.2 8 Este 17 Nordeste 0 943.6 -0.5 61
2019-04-17 10:00:00 12.1 5 Sudeste 13 Este 0 944.1 0.3 70
2019-04-17 09:00:00 10.7 8 Nordeste 13 Este 0 944.2 0.3 78
2019-04-17 08:00:00 10.1 8 Nordeste 14 Sudeste 0 944.1 0 79
2019-04-17 07:00:00 10 6 Este 12 Sudeste 0 943.8 -0.8 80
2019-04-17 06:00:00 10.2 9 Este 15 Este 0 943.9 -1.2 79
2019-04-17 05:00:00 10.3 10 Nordeste 16 Nordeste 0 944.1 -1.3 81
2019-04-17 04:00:00 10.3 9 Nordeste 20 Nordeste 0 944.6 -1 81
2019-04-17 03:00:00 10.2 10 Nordeste 17 Nordeste 0 945.1 -0.5 82
2019-04-17 02:00:00 10 10 Nordeste 18 Nordeste 0 945.4 -0.1 83
2019-04-17 01:00:00 10.3 11 Nordeste 19 Nordeste 0 945.6 0.8 78
2019-04-17 00:00:00 11.5 12 Nordeste 18 Nordeste 0 945.6 1.6 72
2019-04-16 23:00:00 11.9 14 Nordeste 22 Nordeste 0 945.5 2 70
2019-04-16 22:00:00 13.5 12 Este 21 Este 0 944.8 1.8 68
2019-04-16 21:00:00 15.2 9 Este 21 Sudeste 0 944 0.8 61
2019-04-16 20:00:00 17.8 14 Este 27 Este 0 943.5 0.1 51
2019-04-16 19:00:00 20.1 14 Sudeste 27 Sudeste 0 943 -0.6 41
2019-04-16 18:00:00 21.5 12 Sudeste 29 Sudeste 0 943.2 -0.8 36
2019-04-16 17:00:00 21.9 13 Sur 30 Sudoeste 0 943.4 -0.9 37
2019-04-16 16:00:00 22.2 21 Sur 32 Sur 0 943.6 -1.4 32
2019-04-16 15:00:00 23 8 Sudoeste 21 Sur 0 944 -1.2 20
2019-04-16 14:00:00 21.3 7 Este 18 Oeste 0 944.3 -0.7 24
2019-04-16 13:00:00 19.5 8 Norte 21 Norte 0 945 -0.1 33
2019-04-16 12:00:00 18.6 10 Nordeste 22 Noroeste 0 945.2 0.5 37
2019-04-16 11:00:00 15.9 10 Norte 26 Norte 0 945 1.2 48
2019-04-16 10:00:00 14.8 6 Nordeste 29 Oeste 0 945.1 1.1 53
2019-04-16 09:00:00 12.9 17 Oeste 34 Oeste 0 944.7 1.2 58
2019-04-16 08:00:00 11.9 7 Oeste 39 Oeste 0 943.8 0.6 61
2019-04-16 07:00:00 11.9 19 Oeste 41 Oeste 0 944 1.5 63
2019-04-16 06:00:00 12.6 20 Oeste 51 Noroeste 0 943.5 0.9 61
2019-04-16 05:00:00 13.8 29 Oeste 46 Oeste 0 943.2 0.3 57
2019-04-16 04:00:00 13.9 10 Noroeste 31 Oeste 0 942.5 -0.1 59
2019-04-16 03:00:00 14.5 13 Oeste -- -- 0 942.6 0.3 58
2019-04-16 02:00:00 11.4 5 Sur 12 Nordeste 0 942.9 1.3 82
2019-04-16 01:00:00 12.7 6 Sur 19 Norte 0 942.6 1.6 75
2019-04-16 00:00:00 12.9 8 Sudoeste 14 Oeste 0 942.3 2.2 75
2019-04-15 23:00:00 13.8 2 Noroeste 12 Este 0 941.6 2 71
2019-04-15 22:00:00 14.6 8 Nordeste 18 Nordeste 0 941 1.6 68
2019-04-15 21:00:00 16.9 11 Nordeste 18 Nordeste 0 940.1 0.6 57
2019-04-15 20:00:00 20.2 12 Este 21 Sudeste 0 939.6 0.2 40
2019-04-15 19:00:00 22.2 9 Sudeste 20 Sur 0 939.4 -0.6 37
2019-04-15 18:00:00 23.1 9 Sur 23 Sudeste 0 939.5 -1 34
2019-04-15 17:00:00 23.4 14 Sur 24 Sur 0 939.4 -1.8 32
2019-04-15 16:00:00 22.6 15 Este 27 Este 0 940 -1.3 35
2019-04-15 15:00:00 23.3 16 Este 29 Nordeste 0 940.5 -1.3 32
2019-04-15 14:00:00 22 13 Este 21 Nordeste 0 941.2 -1 33
2019-04-15 13:00:00 20.4 13 Este 23 Nordeste 0 941.3 -1 45
2019-04-15 12:00:00 18.1 13 Nordeste 23 Nordeste 0 941.8 -0.5 55
2019-04-15 11:00:00 16.1 8 Este 18 Nordeste 0 942.2 0.2 59
2019-04-15 10:00:00 14.1 11 Nordeste 20 Nordeste 0 942.3 0.8 68
2019-04-15 09:00:00 11.9 14 Nordeste 19 Nordeste 0 942.3 0.8 75
2019-04-15 08:00:00 10.3 2 Este 6 Sudoeste 0 942 0 82
2019-04-15 07:00:00 10.9 0 Calma 8 Sudoeste 0 941.5 -0.7 79
2019-04-15 06:00:00 11.5 0 Calma 11 Oeste 0 941.5 -1 76
2019-04-15 05:00:00 11.6 9 Oeste 11 Oeste 0 942 -1.1 77
2019-04-15 04:00:00 12.7 3 Oeste 7 Sudoeste 0 942.2 -1 70
2019-04-15 03:00:00 13.3 2 Sur 8 Sudeste 0 942.5 -0.5 66
2019-04-15 02:00:00 14.8 3 Nordeste 12 Sudoeste 0 943.1 0.1 59
2019-04-15 01:00:00 15.7 13 Oeste 17 Sudoeste 0 943.2 0.9 57
2019-04-15 00:00:00 16.2 14 Oeste 18 Oeste 0 943 1.4 54
2019-04-14 23:00:00 17.2 10 Oeste 18 Oeste 0 943 2 50
2019-04-14 22:00:00 21 11 Oeste 23 Oeste 0 942.3 1.3 36
2019-04-14 21:00:00 21.9 14 Oeste 23 Oeste 0 941.6 0.3 34
2019-04-14 20:00:00 24 8 Oeste 27 Oeste 0 941 -0.6 29
2019-04-14 19:00:00 25.1 13 Oeste 27 Oeste 0 941 -1.5 25
2019-04-14 18:00:00 25.1 15 Sudoeste 32 Oeste 0 941.3 -1.7 23
2019-04-14 17:00:00 25.2 15 Sudoeste 34 Sudoeste 0 941.6 -1.8 21
2019-04-14 16:00:00 24.6 17 Oeste -- -- 0 942.5 -1.3 20
2019-04-14 15:00:00 23.5 14 Oeste -- -- 0 943 -1.2 25
2019-04-14 14:00:00 22.4 17 Oeste 36 Oeste 0 943.4 -0.9 26
2019-04-14 13:00:00 21.8 -- -- -- -- 0 943.8 -0.3 28
2019-04-14 12:00:00 20.8 14 Oeste 31 Oeste 0 944.2 0.2 31
2019-04-14 11:00:00 18.8 12 Sudoeste 30 Oeste 0 944.3 0.6 35
2019-04-14 10:00:00 16.7 17 Oeste 28 Oeste 0 944.1 0.6 37
2019-04-14 09:00:00 15.3 9 Oeste 28 Oeste 0 944 0.6 40
2019-04-14 08:00:00 14.3 19 Oeste 34 Oeste 0 943.7 0.1 40
2019-04-14 07:00:00 13 5 Noroeste 26 Oeste 0 943.5 -0.4 44
2019-04-14 06:00:00 13.7 12 Oeste 31 Oeste 0 943.4 -0.6 42
2019-04-14 05:00:00 13.5 15 Oeste 24 Noroeste 0 943.6 -1.1 44
2019-04-14 04:00:00 8.5 3 Este 8 Sudoeste 0 943.9 -1 51
2019-04-14 03:00:00 10 6 Sudoeste 21 Oeste 0 944 -0.8 52
2019-04-14 02:00:00 14 13 Oeste 18 Oeste 0 944.7 0.2 34
2019-04-14 01:00:00 10.5 9 Sudoeste 11 Sudoeste 0 944.9 0.9 39
2019-04-14 00:00:00 12.8 4 Nordeste 27 Oeste 0 944.8 1.4 28
2019-04-13 23:00:00 17.3 19 Oeste 34 Oeste 0 944.5 1.3 17
2019-04-13 22:00:00 17.5 14 Oeste 27 Oeste 0 944 1.2 15
2019-04-13 21:00:00 18.1 9 Oeste 18 Oeste 0 943.4 0.4 17
2019-04-13 20:00:00 20.1 13 Oeste 29 Oeste 0 943.2 0.2 14
2019-04-13 19:00:00 21 19 Oeste 41 Oeste 0 942.8 -0.6 14
2019-04-13 18:00:00 21.3 17 Oeste 36 Oeste 0 943 -0.7 14
2019-04-13 17:00:00 21.4 17 Oeste 43 Oeste 0 943 -1.1 14
2019-04-13 16:00:00 21.2 16 Oeste 45 Oeste 0 943.4 -1.2 16
2019-04-13 15:00:00 20.5 13 Oeste 28 Sudoeste 0 943.7 -0.9 16
2019-04-13 14:00:00 19.4 10 Oeste 39 Oeste 0 944.1 -0.5 19
2019-04-13 13:00:00 18.8 14 Oeste 43 Oeste 0 944.6 0.3 20
2019-04-13 12:00:00 17.5 15 Sudoeste 31 Sudoeste 0 944.6 0.3 24
2019-04-13 11:00:00 16.4 9 Sudoeste 22 Oeste 0 944.6 0.8 29
2019-04-13 10:00:00 14.5 8 Oeste 21 Noroeste 0 944.3 0.8 33
2019-04-13 09:00:00 9.6 4 Sudeste 12 Sudeste 0 944.3 1.3 50
2019-04-13 08:00:00 4.8 6 Sur 15 Este 0 943.8 0.7 68
2019-04-13 07:00:00 3.1 3 Sudoeste 8 Sudoeste 0 943.5 0.2 74
2019-04-13 06:00:00 4.2 3 Oeste 13 Oeste 0 943 -0.3 71
2019-04-13 05:00:00 5.8 8 Oeste 12 Oeste 0 943.1 -0.4 65
2019-04-13 04:00:00 9 4 Nordeste 24 Noroeste 0 943.3 0 49
2019-04-13 03:00:00 12.4 14 Noroeste 31 Noroeste 0 943.3 0.2 36
2019-04-13 02:00:00 12.8 14 Oeste 34 Oeste 0 943.5 0.5 33
2019-04-13 01:00:00 12.4 18 Oeste 30 Oeste 0 943.3 0.6 34
2019-04-13 00:00:00 12.9 17 Oeste 27 Sudoeste 0 943.1 1 33
2019-04-12 23:00:00 12.8 15 Oeste 20 Oeste 0 943 1.3 35
2019-04-12 22:00:00 13.1 11 Oeste 22 Noroeste 0 942.7 0.9 36
2019-04-12 21:00:00 14.8 12 Oeste 30 Oeste 0 942.1 0.2 32
2019-04-12 20:00:00 16.4 16 Oeste 36 Oeste 0 941.7 0.1 28
2019-04-12 19:00:00 17.5 21 Oeste 44 Oeste 0 941.8 -0.2 25
2019-04-12 18:00:00 17.9 17 Oeste 43 Oeste 0 941.9 -0.4 25
2019-04-12 17:00:00 18.3 21 Oeste 41 Oeste 0 941.6 -1.1 23
2019-04-12 16:00:00 17.6 19 Oeste 42 Oeste 0 942 -1 28
2019-04-12 15:00:00 17.3 10 Oeste 31 Sudoeste 0 942.3 -0.9 28
2019-04-12 14:00:00 15.8 9 Noroeste 35 Sur 0 942.7 -0.2 30
2019-04-12 13:00:00 14.2 11 Oeste 30 Oeste 0 943 0.1 33
2019-04-12 12:00:00 12.7 12 Oeste 33 Norte 0 943.2 0.4 38
2019-04-12 11:00:00 11.1 10 Sudeste 32 Oeste 0 942.9 0.3 45
2019-04-12 10:00:00 8.9 12 Sudoeste 28 Oeste 0 942.9 0.6 53
2019-04-12 09:00:00 8.2 16 Oeste 30 Oeste 0 942.8 0.7 55
2019-04-12 08:00:00 7.4 15 Oeste 32 Oeste 0 942.6 0.3 55
2019-04-12 07:00:00 8.1 17 Oeste 33 Oeste 0 942.3 -0.4 53
2019-04-12 06:00:00 7.8 5 Noroeste 26 Oeste 0 942.1 -0.8 53
2019-04-12 05:00:00 8.8 11 Oeste 27 Oeste 0 942.3 -0.9 50
2019-04-12 04:00:00 9.1 6 Noroeste 20 Noroeste 0 942.7 -0.3 51
2019-04-12 03:00:00 10.2 11 Norte 21 Norte 0 942.9 0.4 46
2019-04-12 02:00:00 10.2 11 Norte 32 Oeste 0 943.2 1 46
2019-04-12 01:00:00 11.1 17 Noroeste 30 Oeste 0 943 0.9 38
2019-04-12 00:00:00 12.2 10 Oeste 24 Sudoeste 0 942.5 1.1 34
2019-04-11 23:00:00 12.6 14 Oeste 32 Oeste 0 942.2 1.4 34
2019-04-11 22:00:00 12.7 17 Oeste -- -- 0 942.1 1.4 36
2019-04-11 21:00:00 13.8 19 Oeste 36 Oeste 0 941.4 0.8 34
2019-04-11 20:00:00 15.7 26 Oeste 41 Oeste 0 940.8 0.1 28
2019-04-11 19:00:00 16.9 24 Oeste 44 Oeste 0 940.7 -0.4 26
2019-04-11 18:00:00 17.5 20 Oeste 46 Oeste 0 940.6 -1 25
2019-04-11 17:00:00 18 8 Oeste 30 Oeste 0 940.7 -1 25
2019-04-11 16:00:00 17.2 10 Oeste -- -- 0 941.1 -1 29
2019-04-11 15:00:00 16.3 8 Noroeste -- -- 0 941.6 -0.5 32
2019-04-11 14:00:00 15.5 11 Noroeste 36 Oeste 0 941.7 -0.4 34
2019-04-11 13:00:00 14.2 12 Oeste -- -- 0 942.1 0.5 39
2019-04-11 12:00:00 11.6 20 Noroeste 49 Oeste 0 942.1 0.5 46
2019-04-11 11:00:00 10.7 11 Noroeste 39 Oeste 0 942.1 0.9 51
2019-04-11 10:00:00 8.8 16 Oeste 37 Sudoeste 0 941.6 0.6 58
2019-04-11 09:00:00 7.8 8 Noroeste 29 Oeste 0 941.6 0.5 60
2019-04-11 08:00:00 6.1 10 Oeste 25 Oeste 0 941.2 0.2 68
2019-04-11 07:00:00 6.5 11 Oeste 26 Noroeste 0 941 0.4 70
2019-04-11 06:00:00 6.7 7 Noroeste 28 Noroeste 0 941.1 0.3 68
2019-04-11 05:00:00 7 7 Oeste 37 Oeste 0 941 -0.2 68
2019-04-11 04:00:00 7.4 16 Oeste 40 Oeste 0 940.6 -0.4 68
2019-04-11 03:00:00 8 22 Oeste 45 Oeste 0 940.8 0 66
2019-04-11 02:00:00 8.4 17 Oeste 38 Oeste 0 941.2 0.4 64
2019-04-11 01:00:00 8.2 20 Oeste 44 Oeste 0 941 0.8 66
2019-04-11 00:00:00 8.9 22 Oeste 49 Oeste 0 940.8 1.3 61
2019-04-10 23:00:00 8.6 24 Oeste 44 Oeste 0 940.8 1.8 64
2019-04-10 22:00:00 9.1 24 Oeste 37 Oeste 0 940.2 1.7 63
2019-04-10 21:00:00 9.7 18 Oeste 30 Oeste 0 939.5 1.4 65
2019-04-10 20:00:00 9.9 19 Oeste 33 Sudoeste 0 939 0.4 65
2019-04-10 19:00:00 12 23 Oeste 49 Oeste 0 938.5 -0.5 52
2019-04-10 18:00:00 12.6 24 Sudoeste 41 Oeste 0 938.1 -1.1 43
2019-04-10 17:00:00 11.2 27 Oeste 42 Sudoeste 0 938.6 -0.8 50
2019-04-10 16:00:00 13.1 30 Oeste 45 Oeste 0 939 -0.8 49
2019-04-10 15:00:00 13.3 27 Oeste 49 Oeste 0 939.2 -0.8 38
2019-04-10 14:00:00 13.4 24 Oeste 59 Oeste 0 939.4 -0.1 40
2019-04-10 13:00:00 11.9 26 Oeste 43 Oeste 0 939.8 0.8 48
2019-04-10 12:00:00 11 21 Oeste 49 Oeste 0 940 0.9 54
2019-04-10 11:00:00 10.9 29 Oeste 58 Oeste 0 939.5 0.6 56
2019-04-10 10:00:00 9.9 28 Oeste 53 Oeste 0 939 0.5 60
2019-04-10 09:00:00 8.6 23 Oeste 45 Oeste 0 939.1 0.3 68
2019-04-10 08:00:00 7.7 21 Oeste 46 Oeste 0 938.9 -0.1 71
2019-04-10 07:00:00 7.9 24 Oeste 44 Sudoeste 0 938.5 -0.3 71
2019-04-10 06:00:00 8 22 Oeste 49 Oeste 0 938.8 -0.4 72
2019-04-10 05:00:00 8.5 31 Oeste 65 Oeste 0 939 -0.5 68
2019-04-10 04:00:00 8.9 37 Oeste 62 Oeste 0 938.8 -0.9 60
2019-04-10 03:00:00 9.3 25 Oeste 46 Oeste 0 939.2 -0.7 64
2019-04-10 02:00:00 8.6 14 Oeste 32 Oeste 0 939.5 -0.3 67
2019-04-10 01:00:00 7.9 12 Oeste 24 Oeste 0 939.7 -0.5 73
2019-04-10 00:00:00 8.1 10 Oeste 29 Oeste 0 939.9 0.9 67
2019-04-09 23:00:00 8.1 16 Oeste 38 Noroeste 0 939.8 1 69
2019-04-09 22:00:00 9.1 13 Oeste 26 Oeste 0 940.2 1.7 70
2019-04-09 21:00:00 9.1 14 Oeste 35 Oeste 0 939 0.1 69
2019-04-09 20:00:00 10.7 22 Oeste 43 Oeste 0 938.8 0.3 60
2019-04-09 19:00:00 11.6 27 Oeste 52 Oeste 0 938.5 -0.5 60
2019-04-09 18:00:00 9.8 18 Oeste -- -- 3 938.9 -0.8 75
2019-04-09 17:00:00 13.5 23 Oeste 37 Sudoeste 0 938.5 -1.4 44
2019-04-09 16:00:00 14.3 20 Oeste 42 Sudoeste 0 939 -1.4 38
2019-04-09 15:00:00 13.4 20 Oeste 43 Oeste 0 939.7 -1 47
2019-04-09 14:00:00 14.3 16 Oeste 53 Oeste 0 939.9 -1 43
2019-04-09 13:00:00 13.5 30 Oeste 55 Oeste 0 940.4 -0.4 46
2019-04-09 12:00:00 12.1 24 Oeste 54 Oeste 0 940.7 0.1 51
2019-04-09 11:00:00 10.9 26 Oeste 55 Oeste 0 940.9 0.8 55
2019-04-09 10:00:00 9.6 15 Oeste 55 Oeste 0 940.8 0.9 61
2019-04-09 09:00:00 8 27 Oeste 52 Oeste 0 940.6 1.1 69
2019-04-09 08:00:00 7.3 20 Oeste 50 Oeste 0 940.1 0.3 72
2019-04-09 07:00:00 8 22 Oeste 46 Oeste 0 939.9 0.1 72
2019-04-09 06:00:00 8.5 23 Oeste 39 Oeste 0 939.5 -0.4 71
2019-04-09 05:00:00 8.8 26 Oeste 40 Oeste 0 939.8 -0.8 70
2019-04-09 04:00:00 7.6 10 Oeste 17 Oeste 0 939.8 0.1 83
2019-04-09 03:00:00 8.6 10 Oeste 23 Oeste 0.2 939.9 0.2 82
2019-04-09 02:00:00 9 23 Oeste 38 Oeste 2.2 940.6 1 81
2019-04-09 01:00:00 10.9 12 Noroeste 26 Oeste 0 939.7 0.1 69
2019-04-09 00:00:00 11.5 14 Oeste 26 Oeste 0 939.7 0.3 68
2019-04-08 23:00:00 11.7 15 Oeste 24 Oeste 0 939.6 0.4 72
2019-04-08 22:00:00 10.8 8 Sudoeste 12 Oeste 0 939.6 0.4 80
2019-04-08 21:00:00 12 9 Oeste 17 Oeste 0 939.4 -0.1 71
2019-04-08 20:00:00 12.8 9 Oeste 28 Oeste 0 939.2 -0.7 72
2019-04-08 19:00:00 13.2 7 Oeste 30 Oeste 0.2 939.2 -0.1 77
2019-04-08 18:00:00 13.1 13 Oeste 28 Oeste 0.2 939.5 -0.5 76
2019-04-08 17:00:00 12 20 Noroeste -- -- 2.4 939.9 -0.5 79
2019-04-08 16:00:00 17.5 16 Oeste 28 Sudoeste 0 939.3 -1.3 47
2019-04-08 15:00:00 15.5 18 Sudoeste 32 Oeste 0 940 -0.7 56
2019-04-08 14:00:00 13.6 17 Sudoeste 27 Oeste 0 940.4 -0.4 60
2019-04-08 13:00:00 13.2 16 Oeste 27 Oeste 0 940.6 -0.4 62
2019-04-08 12:00:00 13.8 19 Oeste 30 Sudoeste 0 940.7 0.1 62
2019-04-08 11:00:00 11.8 12 Oeste 22 Oeste 0 940.8 0.8 78
2019-04-08 10:00:00 10.2 12 Oeste 17 Oeste 0 941 0.9 82
2019-04-08 09:00:00 8 0 Calma 10 Este 0 940.6 0.5 86
2019-04-08 08:00:00 7.2 3 Oeste 10 Sudoeste 0 940 -0.5 87
2019-04-08 07:00:00 6.6 6 Sudoeste 9 Sudoeste 0 940.1 -0.4 85
2019-04-08 06:00:00 7.6 5 Oeste 14 Oeste 0 940.1 -0.9 81
2019-04-08 05:00:00 8.9 9 Sudoeste 17 Oeste 0 940.5 -0.9 79
2019-04-08 04:00:00 8.9 10 Sudoeste 13 Sudoeste 0 940.5 -1.1 77
2019-04-08 03:00:00 8.7 2 Oeste 9 Sudoeste 0 941 -0.6 76
2019-04-08 02:00:00 9 7 Sudoeste 15 Oeste 0 941.4 0 77
2019-04-08 01:00:00 10 12 Oeste 21 Oeste 0 941.6 0.6 70
2019-04-08 00:00:00 10 10 Oeste 15 Oeste 0 941.6 1.1 64
2019-04-07 23:00:00 10.7 8 Oeste 16 Oeste 0 941.4 1.6 56
2019-04-07 22:00:00 11.4 10 Oeste 25 Oeste 0 941 1.7 50
2019-04-07 21:00:00 12 13 Oeste 30 Oeste 0 940.5 1.9 49
2019-04-07 20:00:00 12.6 18 Oeste 33 Oeste 0 939.8 1.6 43
2019-04-07 19:00:00 13 18 Oeste 36 Oeste 0 939.3 1.4 41
2019-04-07 18:00:00 13.5 27 Oeste 50 Oeste 0 938.6 0.9 39
2019-04-07 17:00:00 14.3 28 Oeste 48 Oeste 0 938.2 0.5 38
2019-04-07 16:00:00 12.9 26 Oeste 55 Oeste 0 937.9 0.4 38
2019-04-07 15:00:00 12.9 24 Oeste 57 Oeste 0 937.7 0.6 38
2019-04-07 14:00:00 12.8 32 Oeste 56 Oeste 0 937.7 1 39
2019-04-07 13:00:00 11.3 28 Oeste 59 Oeste 0 937.5 1.2 50
2019-04-07 12:00:00 9.9 28 Oeste 66 Oeste 0 937.1 1.6 52
2019-04-07 11:00:00 8.3 31 Oeste 60 Oeste 0 936.7 1.7 61
2019-04-07 10:00:00 6 22 Oeste 31 Oeste 0 936.3 1.7 78
2019-04-07 09:00:00 5.2 19 Oeste 44 Oeste 0 935.5 1.7 80
2019-04-07 08:00:00 4 15 Oeste 32 Oeste 0.8 935 1.5 84
2019-04-07 07:00:00 5.2 23 Oeste 53 Oeste 0 934.6 1.5 76
2019-04-07 06:00:00 6.2 18 Oeste 38 Oeste 0 933.8 0.6 69
2019-04-07 05:00:00 6.4 20 Oeste 36 Noroeste 0 933.5 0.1 63
2019-04-07 04:00:00 5.9 23 Oeste 37 Oeste 0 933.1 -0.5 66
2019-04-07 03:00:00 6.4 23 Oeste 38 Oeste 0 933.2 -0.3 62
2019-04-07 02:00:00 5.7 14 Oeste 26 Oeste 0 933.4 0 66
2019-04-07 01:00:00 5.7 12 Oeste 26 Oeste 0 933.6 0.9 66
2019-04-07 00:00:00 5.7 14 Oeste 31 Oeste 0 933.5 1.1 70
2019-04-06 23:00:00 6 14 Oeste 28 Oeste 0 933.4 1.4 70
2019-04-06 22:00:00 6.7 21 Sudoeste 30 Oeste 0 932.7 1.2 67
2019-04-06 21:00:00 7.6 19 Oeste 38 Oeste 0 932.4 0.8 68
2019-04-06 20:00:00 9.1 13 Oeste 39 Oeste 0 932 -0.9 59
2019-04-06 19:00:00 10.6 22 Oeste 41 Oeste 0 931.5 0.4 57
2019-04-06 18:00:00 10.1 24 Oeste 57 Oeste 0.2 931.6 0.4 64
2019-04-06 17:00:00 6.1 32 Oeste 69 Oeste 0.8 932.9 1.3 76
2019-04-06 16:00:00 13.6 28 Oeste 51 Oeste 0 931.1 -0.8 34
2019-04-06 15:00:00 13.2 35 Sudoeste 53 Sudoeste 0 931.2 -0.9 41
2019-04-06 14:00:00 12.1 28 Sudoeste 45 Sudoeste 0 931.6 -0.2 43
2019-04-06 13:00:00 11 13 Oeste 42 Sudoeste 0 931.9 0.6 52
2019-04-06 12:00:00 11.3 19 Oeste 42 Oeste 0 932.1 0.8 48
2019-04-06 11:00:00 9.5 12 Oeste 36 Oeste 0 931.8 1 55
2019-04-06 10:00:00 7.8 19 Oeste 45 Oeste 0 931.3 1.4 58
2019-04-06 09:00:00 6.2 13 Oeste 40 Sudoeste 0 931.3 1.6 62
2019-04-06 08:00:00 5.5 10 Oeste 32 Oeste 0 930.8 1 69
2019-04-06 07:00:00 5.3 11 Oeste 40 Oeste 0 929.9 0.2 65
2019-04-06 06:00:00 5.7 27 Oeste 42 Oeste 0 929.7 0 65
2019-04-06 05:00:00 5.4 20 Oeste 36 Oeste 0 929.8 0.3 67
2019-04-06 04:00:00 4.6 11 Sudoeste 25 Oeste 0 929.7 0 78
2019-04-06 03:00:00 3.7 6 Sudoeste 12 Oeste 0 929.7 0.1 75
2019-04-06 02:00:00 5.7 10 Sudoeste 27 Oeste 0 929.5 0.1 64
2019-04-06 01:00:00 6.3 9 Oeste 35 Noroeste 0 929.7 1.3 60
2019-04-06 00:00:00 5.8 15 Oeste 25 Oeste 0 929.6 1.7 63
2019-04-05 23:00:00 5.4 16 Oeste 24 Oeste 0 929.4 2.5 73
2019-04-05 22:00:00 6.2 14 Sudoeste 44 Oeste 0 928.4 2 68
2019-04-05 21:00:00 7.3 29 Oeste -- -- 0 927.9 0.9 69
2019-04-05 20:00:00 8.6 2 Oeste 7 Sur 0 926.9 0.1 83
2019-04-05 19:00:00 7.9 8 Nordeste 18 Nordeste 0 926.4 -1.4 84
2019-04-05 18:00:00 8.1 3 Este 13 Este 0 927 -0.2 84
2019-04-05 17:00:00 8 5 Oeste 37 Oeste 3.2 926.8 -0.6 84
2019-04-05 16:00:00 8.4 20 Noroeste 41 Oeste 0.8 927.8 -0.5 79
2019-04-05 15:00:00 13.6 11 Sudoeste 24 Sudoeste 0 927.2 -1.6 41
2019-04-05 14:00:00 16.1 13 Oeste 29 Oeste 0 927.4 -1.6 31
2019-04-05 13:00:00 15.1 17 Oeste 30 Sudoeste 0 928.3 -0.8 34
2019-04-05 12:00:00 13.3 11 Sudoeste 27 Sudoeste 0 928.8 -0.5 42
2019-04-05 11:00:00 12.5 12 Sudoeste 23 Sudoeste 0 929 -0.4 43
2019-04-05 10:00:00 10.9 11 Oeste 21 Oeste 0 929.1 -0.3 49
2019-04-05 09:00:00 7.5 3 Sudoeste 11 Sudoeste 0 929.3 0.1 87
2019-04-05 08:00:00 5.2 3 Sudoeste 7 Oeste 0 929.4 0 90
2019-04-05 07:00:00 5.2 5 Sudoeste 8 Sudoeste 0 929.4 -0.4 90
2019-04-05 06:00:00 5.4 7 Sudoeste 11 Sudoeste 0 929.2 -0.9 86
2019-04-05 05:00:00 6.5 2 Sur 18 Sudoeste 0 929.4 -0.8 81
2019-04-05 04:00:00 7.3 12 Sudoeste 18 Sudoeste 0 929.8 -0.7 82
2019-04-05 03:00:00 7.3 10 Oeste 15 Sudoeste 0 930.1 -0.6 80
2019-04-05 02:00:00 7.2 8 Sur 13 Sudoeste 0 930.2 -0.4 80
2019-04-05 01:00:00 8.1 8 Sudoeste 17 Sudoeste 0 930.5 0.1 77
2019-04-05 00:00:00 8.6 10 Sudoeste 20 Sudoeste 0 930.7 0.9 75
2019-04-04 23:00:00 8.7 14 Sur 21 Sur 0 930.6 1 73
2019-04-04 22:00:00 8.8 11 Sudoeste 25 Sudoeste 0 930.4 1.1 73
2019-04-04 21:00:00 9.5 17 Sur 32 Sudoeste 0 929.8 0.7 69
2019-04-04 20:00:00 11 17 Sur 31 Sur 0 929.6 0.1 61
2019-04-04 19:00:00 13.3 18 Sur 33 Sudeste 0 929.3 -0.8 51
2019-04-04 18:00:00 15.9 10 Sur 23 Sur 0 929.1 -1.7 23
2019-04-04 17:00:00 16.6 7 Sudoeste -- -- 0 929.5 -1.9 22
2019-04-04 16:00:00 15.8 10 Sudoeste 21 Sudoeste 0 930.1 -1.6 22
2019-04-04 15:00:00 15.1 9 Sudoeste 23 Sudoeste 0 930.8 -1 22
2019-04-04 14:00:00 14.3 13 Sudoeste 26 Nordeste 0 931.4 -0.2 21
2019-04-04 13:00:00 12.8 17 Nordeste 30 Nordeste 0 931.7 0.5 20
2019-04-04 12:00:00 11.7 13 Nordeste 30 Nordeste 0 931.8 0.9 21
2019-04-04 11:00:00 10.6 9 Nordeste 27 Nordeste 0 931.6 1.2 32
2019-04-04 10:00:00 8.8 14 Norte 28 Nordeste 0 931.2 1.4 46
2019-04-04 09:00:00 6.3 5 Este 11 Norte 0 930.9 1.5 82
2019-04-04 08:00:00 3 3 Oeste 10 Oeste 0 930.4 1.2 83
2019-04-04 07:00:00 3.2 4 Sudoeste 8 Sudoeste 0 929.8 0.7 77
2019-04-04 06:00:00 4.4 4 Sudoeste 6 Sur 0 929.4 0 78
2019-04-04 05:00:00 6.5 4 Sudoeste 19 Nordeste 0 929.2 -0.4 71
2019-04-04 04:00:00 7.5 7 Noroeste 21 Noroeste 0 929.1 -0.5 61
2019-04-04 03:00:00 8.2 6 Sudeste 17 Norte 0 929.4 -0.5 75
2019-04-04 02:00:00 9.8 12 Norte 19 Oeste 0 929.6 -0.1 66
2019-04-04 01:00:00 11.7 12 Noroeste 28 Norte 0 929.6 0.6 45
2019-04-04 00:00:00 13 10 Oeste 44 Oeste 0 929.9 1.7 42
2019-04-03 23:00:00 14.2 16 Oeste 37 Oeste 0 929.7 1.8 35
2019-04-03 22:00:00 15.5 12 Noroeste 25 Oeste 0 929 1 42
2019-04-03 21:00:00 15.8 12 Oeste 31 Oeste 0 928.2 -0.2 42
2019-04-03 20:00:00 18.3 22 Oeste 39 Oeste 0 927.9 -1.3 32
2019-04-03 19:00:00 19.7 24 Oeste 41 Oeste 0 928 -2.2 27
2019-04-03 18:00:00 20.8 19 Sudoeste 38 Oeste 0 928.4 -3 25
2019-04-03 17:00:00 20.3 15 Sudoeste 34 Sudoeste 0 929.2 -3.2 30
2019-04-03 16:00:00 20.1 20 Sudoeste 36 Sudoeste 0 930.2 -3.2 32
2019-04-03 15:00:00 19.9 24 Oeste 37 Oeste 0 931.4 -3.1 31
2019-04-03 14:00:00 18.7 22 Sudoeste 33 Oeste 0 932.4 -2.9 38
2019-04-03 13:00:00 17.8 21 Oeste 36 Oeste 0 933.4 -2.3 39
2019-04-03 12:00:00 16.8 22 Oeste 32 Oeste 0 934.5 -1.7 46
2019-04-03 11:00:00 15.5 17 Oeste 27 Sudoeste 0 935.3 -1 52
2019-04-03 10:00:00 14 13 Oeste 21 Oeste 0 935.7 -0.8 58
2019-04-03 09:00:00 11.1 11 Oeste 18 Oeste 0 936.2 -0.5 72
2019-04-03 08:00:00 7.6 8 Oeste 13 Oeste 0 936.3 -1.1 91
2019-04-03 07:00:00 5.8 2 Oeste 8 Noroeste 0 936.5 -1.6 90
2019-04-03 06:00:00 6 3 Sur 6 Sudeste 0 936.7 -1.9 89
2019-04-03 05:00:00 6.5 5 Sudoeste 8 Oeste 0 937.4 -2.1 88
2019-04-03 04:00:00 8.1 3 Nordeste 12 Sudoeste 0 938.1 -1.8 86
2019-04-03 03:00:00 8.5 10 Sudoeste 12 Sudoeste 0 938.6 -1.7 86
2019-04-03 02:00:00 9.1 4 Oeste 8 Nordeste 0 939.5 -1.1 84
2019-04-03 01:00:00 10.8 4 Sur 16 Sudoeste 0 939.9 -0.5 78
2019-04-03 00:00:00 10.8 4 Noroeste 16 Oeste 0 940.3 0.2 82
2019-04-02 23:00:00 10.2 9 Oeste 13 Oeste 0 940.6 1.4 87
2019-04-02 22:00:00 11.7 3 Noroeste 15 Sudoeste 0.2 940.4 1.4 81
2019-04-02 21:00:00 13.8 4 Este 21 Noroeste 0 940.1 1 68
2019-04-02 20:00:00 16.2 6 Oeste 19 Oeste 0 939.2 -0.4 50
2019-04-02 19:00:00 17.2 12 Sudoeste 21 Sudoeste 0 939 -1.1 46
2019-04-02 18:00:00 18.5 8 Sudoeste 27 Oeste 0 939.1 -1.7 44
2019-04-02 17:00:00 18.6 13 Sudoeste 28 Oeste 0 939.6 -2.1 44
2019-04-02 16:00:00 18.8 13 Oeste 31 Oeste 0 940.1 -2.1 40
2019-04-02 15:00:00 18.5 15 Sudoeste 26 Oeste 0 940.8 -1.7 44
2019-04-02 14:00:00 15.9 13 Oeste 30 Oeste 0 941.7 -0.6 52
2019-04-02 13:00:00 15.5 6 Norte 30 Oeste 0 942.2 0.1 58
2019-04-02 12:00:00 14.3 13 Oeste 30 Oeste 0 942.5 0.4 62
2019-04-02 11:00:00 13.6 11 Oeste 27 Oeste 0 942.3 0.7 69
2019-04-02 10:00:00 11.9 7 Sudoeste 21 Oeste 0 942.1 0.7 82
2019-04-02 09:00:00 9.5 10 Sudoeste 21 Oeste 0 942.1 0.3 91
2019-04-02 08:00:00 7.4 7 Oeste 12 Oeste 0 941.6 0 91
2019-04-02 07:00:00 8.6 2 Sudoeste 6 Noroeste 0 941.4 -0.7 89
2019-04-02 06:00:00 9.9 5 Nordeste 21 Oeste 0 941.8 -0.7 89
2019-04-02 05:00:00 9.8 14 Sudoeste 22 Sudoeste 0 941.6 -1.4 89
2019-04-02 04:00:00 10.2 10 Sudoeste 18 Sudoeste 0 942.1 -0.9 91
2019-04-02 03:00:00 10.4 4 Sudoeste 9 Sudoeste 0 942.5 -0.3 91
2019-04-02 02:00:00 10.4 5 Sudoeste 7 Sudoeste 0 943 0.6 91
2019-04-02 01:00:00 10.4 3 Sudeste 5 Sudoeste 0 943 0.6 91
2019-04-02 00:00:00 10.3 3 Este 18 Sur 0 942.8 1 91
2019-04-01 23:00:00 10.3 10 Sur 18 Sur 0.2 942.4 1.2 91
2019-04-01 22:00:00 10.5 3 Oeste 5 Oeste 0 942.4 1.8 90
2019-04-01 21:00:00 10.4 3 Oeste 8 Norte 0 941.8 1.2 89
2019-04-01 20:00:00 10.6 6 Este 16 Este 1.4 941.2 0.8 88
2019-04-01 19:00:00 11.1 6 Este 18 Nordeste 1.2 940.6 0.1 85
2019-04-01 18:00:00 12.9 10 Nordeste 25 Nordeste 0 940.6 -0.1 73
2019-04-01 17:00:00 13.6 12 Nordeste 26 Nordeste 0 940.4 -1.1 70
2019-04-01 16:00:00 13.4 16 Nordeste 25 Nordeste 0 940.5 -1 72
2019-04-01 15:00:00 14.1 10 Este 20 Este 0 940.7 -0.8 67
2019-04-01 14:00:00 11.6 5 Nordeste 13 Nordeste 0 941.5 0.5 79
2019-04-01 13:00:00 11.5 10 Nordeste 17 Nordeste 0 941.5 1.1 81
2019-04-01 12:00:00 11 9 Este 16 Nordeste 0 941.5 1.8 85
2019-04-01 11:00:00 10.2 8 Nordeste 13 Nordeste 0 941 1.6 89
2019-04-01 10:00:00 9.5 5 Nordeste 10 Este 0 940.4 1.4 91
2019-04-01 09:00:00 9.2 6 Este 9 Nordeste 0 939.7 0.8 92
2019-04-01 08:00:00 9 3 Nordeste 8 Nordeste 0 939.4 0.5 91
2019-04-01 07:00:00 9 4 Nordeste 10 Nordeste 0 939 0 92
2019-04-01 06:00:00 8.9 8 Nordeste 14 Nordeste 0 938.9 -0.2 92
2019-04-01 05:00:00 8.9 6 Nordeste 14 Nordeste 0 938.9 -0.1 92
2019-04-01 04:00:00 8.9 7 Nordeste 18 Nordeste 0 939 -0.2 91
2019-04-01 03:00:00 9 11 Nordeste 21 Nordeste 0 939.1 -0.2 91
2019-04-01 02:00:00 9.1 13 Nordeste 18 Nordeste 0 939 -0.1 91
2019-04-01 01:00:00 9.3 10 Nordeste 19 Norte 1 939.2 0.6 90
2019-04-01 00:00:00 9.6 11 Nordeste 26 Norte 0 939.3 1.1 88
2019-03-31 23:00:00 9.6 14 Nordeste 22 Este 0.2 939.1 1.2 89
2019-03-31 22:00:00 9.4 14 Nordeste 26 Este 0 938.6 0.7 91
2019-03-31 21:00:00 9.3 14 Nordeste 30 Nordeste 0 938.2 0.5 92
2019-03-31 20:00:00 9.3 18 Nordeste 30 Nordeste 0.6 937.9 0.2 92
2019-03-31 19:00:00 9.2 14 Nordeste 36 Nordeste 0.4 937.9 -0.2 91
2019-03-31 18:00:00 9.6 17 Nordeste 35 Nordeste 0 937.7 -0.9 90
2019-03-31 17:00:00 9.2 21 Nordeste 34 Nordeste 0.6 937.7 -1.7 91
2019-03-31 16:00:00 9.1 19 Nordeste 36 Nordeste 0 938.1 -1.9 92
2019-03-31 15:00:00 8.9 17 Nordeste 35 Nordeste 1 938.6 -1.5 92
2019-03-31 14:00:00 8.3 18 Nordeste 31 Nordeste 2.4 939.4 -0.5 92
2019-03-31 13:00:00 8.1 17 Nordeste 28 Nordeste 1.4 940 -0.1 92
2019-03-31 12:00:00 7.8 17 Nordeste 28 Nordeste 1 940.1 0.1 92
2019-03-31 11:00:00 7.6 17 Nordeste 26 Nordeste 1.6 939.9 -0.2 92
2019-03-31 10:00:00 7.3 17 Nordeste 31 Nordeste 1.6 940.1 -0.3 92
2019-03-31 09:00:00 6.9 11 Nordeste 32 Nordeste 1 940 -1.2 91
2019-03-31 08:00:00 6.7 18 Nordeste 29 Nordeste 0.4 940.1 -2.1 90
2019-03-31 07:00:00 6.8 17 Nordeste 28 Nordeste 2 940.4 -2.7 90
2019-03-31 06:00:00 7 14 Nordeste 24 Nordeste 0.8 941.2 -2.6 88
2019-03-31 05:00:00 7.5 12 Nordeste 20 Este 0 942.2 -1.6 81
2019-03-31 03:00:00 7.1 10 Nordeste 24 Nordeste 0 943.8 -0.6 80
2019-03-31 01:00:00 7.5 15 Nordeste 26 Nordeste 0 943.8 -0.9 72
2019-03-31 00:00:00 8.1 18 Nordeste 27 Nordeste 0 944.2 -0.3 67
2019-03-30 23:00:00 8.1 14 Nordeste 27 Nordeste 0 944.4 -0.1 74
2019-03-30 22:00:00 8.9 17 Nordeste 32 Nordeste 0 944.7 0.2 76
2019-03-30 21:00:00 9.8 19 Nordeste 28 Nordeste 0 944.5 0.3 73
2019-03-30 20:00:00 10.3 18 Nordeste 31 Nordeste 0 944.5 1.3 71
2019-03-30 19:00:00 11.6 17 Nordeste 32 Nordeste 0 944.5 0.8 66
2019-03-30 18:00:00 13.4 19 Nordeste 36 Nordeste 0 944.2 -0.2 58
2019-03-30 17:00:00 15.2 25 Nordeste 37 Nordeste 0 943.2 -2.1 51
2019-03-30 16:00:00 17 20 Nordeste 35 Nordeste 0 943.7 -2.8 41
2019-03-30 15:00:00 17.2 17 Nordeste 31 Nordeste 0 944.4 -3.2 34
2019-03-30 14:00:00 16 11 Este 28 Nordeste 0 945.3 -2.7 38
2019-03-30 13:00:00 14.7 9 Este 24 Este 0 946.5 -1.7 40
2019-03-30 12:00:00 13.7 7 Este 21 Este 0 947.6 -0.6 48
2019-03-30 11:00:00 11.5 13 Nordeste 21 Nordeste 0 948 -0.3 53
2019-03-30 10:00:00 10.1 11 Nordeste 19 Nordeste 0 948.2 0.1 64
2019-03-30 09:00:00 7.4 6 Este 14 Nordeste 0 948.2 0.3 85
2019-03-30 08:00:00 4.6 5 Este 15 Nordeste 0 948.3 0.3 91
2019-03-30 07:00:00 3.2 2 Sudeste 9 Sudoeste 0 948.1 -0.6 91
2019-03-30 06:00:00 0.8 4 Oeste 8 Oeste 0 947.9 -1.3 90
2019-03-30 05:00:00 1.3 0 Calma 10 Oeste 0 948 -1.7 89
2019-03-30 04:00:00 2 9 Oeste 13 Sudoeste 0 948.7 -1.6 89
2019-03-30 03:00:00 2.1 11 Oeste 13 Oeste 0 949.2 -1.2 87
2019-03-30 02:00:00 2.4 8 Sudoeste 12 Sudoeste 0 949.7 -0.9 85
2019-03-30 01:00:00 3.1 6 Oeste 11 Oeste 0 950.3 -0.2 83
2019-03-30 00:00:00 4.4 4 Oeste 10 Nordeste 0 950.4 0.2 81
2019-03-29 23:00:00 6.8 8 Nordeste 12 Nordeste 0 950.6 1.3 79
2019-03-29 22:00:00 6.9 7 Nordeste 11 Nordeste 0 950.5 1.5 69
2019-03-29 21:00:00 6.9 3 Oeste 9 Este 0 950.2 1.5 54
2019-03-29 20:00:00 10.4 5 Este 17 Sur 0 949.3 0.4 44
2019-03-29 19:00:00 12.3 11 Sur 22 Sudeste 0 949 0.2 39
2019-03-29 18:00:00 14 12 Sudeste 27 Sudeste 0 948.7 -0.7 35
2019-03-29 17:00:00 15 12 Sudeste 23 Sudeste 0 948.9 -1.3 33
2019-03-29 16:00:00 16 12 Sudeste 28 Sudeste 0 948.8 -2.2 32
2019-03-29 15:00:00 15.6 10 Sudeste 27 Sudeste 0 949.4 -2.2 31
2019-03-29 14:00:00 15.7 -- -- -- -- 0 950.2 -1.8 32
2019-03-29 13:00:00 15.1 14 Sudeste 33 Sudeste 0 951 -1 32
2019-03-29 12:00:00 13.3 14 Sudeste 28 Sudeste 0 951.6 -0.3 43
2019-03-29 11:00:00 12.6 10 Sur 18 Sur 0 952 0.3 46
2019-03-29 10:00:00 10.1 9 Nordeste 17 Nordeste 0 952 0.5 54
2019-03-29 09:00:00 7.9 4 Este 8 Nordeste 0 951.9 0.4 73
2019-03-29 08:00:00 2.7 6 Oeste 9 Sudoeste 0 951.7 0.3 85
2019-03-29 07:00:00 -1.1 2 Noroeste 8 Sudoeste 0 951.5 0.1 83
2019-03-29 06:00:00 -1.5 0 Calma 6 Oeste 0 951.5 -0.1 78
2019-03-29 05:00:00 -0.3 2 Noroeste 11 Oeste 0 951.4 -0.6 74
2019-03-29 04:00:00 0.5 6 Oeste 11 Oeste 0 951.4 -0.7 71
2019-03-29 03:00:00 0.5 5 Oeste 14 Oeste 0 951.6 -0.7 64
2019-03-29 02:00:00 1.5 9 Oeste 14 Oeste 0 952 -0.3 57
2019-03-29 01:00:00 2.9 9 Oeste 14 Oeste 0 952.1 0.1 53
2019-03-29 00:00:00 3.2 8 Sudoeste 12 Oeste 0 952.3 0.4 51
2019-03-28 23:00:00 4.7 9 Oeste 12 Oeste 0 952.3 0.9 50
2019-03-28 22:00:00 7.1 9 Oeste 13 Oeste 0 952 1.1 50
2019-03-28 21:00:00 8.8 6 Oeste 14 Sudoeste 0 951.9 1.4 44
2019-03-28 20:00:00 10.2 7 Sur 19 Sudeste 0 951.4 1.3 38
2019-03-28 19:00:00 12.7 12 Sudeste 24 Sur 0 950.9 0.7 31
2019-03-28 18:00:00 14.7 19 Sudeste 33 Sudeste 0 950.5 -0.2 30
2019-03-28 17:00:00 16.5 13 Sudeste 29 Sudeste 0 950.1 -1 23
2019-03-28 16:00:00 17.2 12 Sur 30 Sudeste 0 950.2 -1.6 16
2019-03-28 15:00:00 17.5 9 Sur 25 Sudeste 0 950.7 -1.7 15
2019-03-28 14:00:00 17.5 13 Este 26 Sur 0 951.1 -1.7 16
2019-03-28 13:00:00 16.7 10 Sudeste 25 Este 0 951.8 -1 18
2019-03-28 12:00:00 15 13 Este 25 Nordeste 0 952.4 -0.3 20
2019-03-28 11:00:00 13.8 9 Este 17 Nordeste 0 952.8 0.3 20
2019-03-28 10:00:00 11.1 5 Este 10 Este 0 952.8 0.7 30
2019-03-28 09:00:00 6.5 3 Sudeste 5 Este 0 952.7 0.9 48
2019-03-28 08:00:00 1.1 5 Sudoeste 9 Sudoeste 0 952.5 1 71
2019-03-28 07:00:00 -2.4 4 Oeste 13 Oeste 0 952.1 0.6 78
2019-03-28 06:00:00 -2.5 3 Oeste 6 Sudoeste 0 951.8 0 77
2019-03-28 05:00:00 -1.2 7 Oeste 9 Oeste 0 951.5 -0.3 75
2019-03-28 04:00:00 -1.4 0 Calma 5 Sudoeste 0 951.5 -0.6 73
2019-03-28 03:00:00 -0.3 3 Oeste 10 Sudoeste 0 951.8 0.2 69
2019-03-28 02:00:00 0.9 9 Sudoeste 13 Oeste 0 951.8 0.6 67
2019-03-28 01:00:00 1 2 Oeste 16 Oeste 0 952.1 1.4 65
2019-03-28 00:00:00 4.4 13 Oeste 17 Oeste 0 951.6 1.5 61
2019-03-27 23:00:00 5.5 12 Oeste 17 Oeste 0 951.2 1.9 57
2019-03-27 22:00:00 5.8 12 Oeste 14 Sudoeste 0 950.7 1.8 48
2019-03-27 21:00:00 6.7 5 Oeste 10 Sur 0 950.1 1.8 45
2019-03-27 20:00:00 10.8 5 Sudeste 22 Este 0 949.3 1.3 26
2019-03-27 19:00:00 13.2 17 Nordeste 31 Nordeste 0 948.9 0.9 24
2019-03-27 18:00:00 14.8 18 Nordeste 34 Nordeste 0 948.3 0.3 22
2019-03-27 17:00:00 15.5 18 Nordeste 35 Nordeste 0 948 -0.4 23
2019-03-27 16:00:00 16.2 17 Nordeste 31 Nordeste 0 948 -0.8 22
2019-03-27 15:00:00 16.3 13 Nordeste 34 Nordeste 0 948 -1.3 22
2019-03-27 14:00:00 15.4 10 Nordeste 34 Este 0 948.4 -1 24
2019-03-27 13:00:00 14.9 7 Nordeste 28 Este 0 948.8 -0.5 27
2019-03-27 12:00:00 13.4 14 Nordeste 32 Nordeste 0 949.3 0.2 32
2019-03-27 11:00:00 12.1 12 Este -- -- 0 949.4 0.3 40
2019-03-27 10:00:00 9.9 12 Nordeste 18 Nordeste 0 949.3 0.8 52
2019-03-27 09:00:00 6.9 6 Este 10 Este 0 949.1 0.7 64
2019-03-27 08:00:00 1.5 3 Sur 10 Sudoeste 0 949.1 0.9 85
2019-03-27 07:00:00 -0.4 7 Oeste 12 Sudoeste 0 948.5 0.2 88
2019-03-27 06:00:00 -0.6 6 Oeste 10 Sudoeste 0 948.4 -0.3 86
2019-03-27 05:00:00 0 5 Oeste 11 Oeste 0 948.2 -0.9 87
2019-03-27 04:00:00 0.3 9 Sudoeste 11 Oeste 0 948.3 -0.9 88
2019-03-27 03:00:00 0.7 5 Sudoeste 9 Sudoeste 0 948.7 -0.2 84
2019-03-27 02:00:00 2.4 6 Sudoeste 14 Sudoeste 0 949.1 0.5 83
2019-03-27 01:00:00 4.9 6 Nordeste 15 Nordeste 0 949.2 1.5 78
2019-03-27 00:00:00 5.5 12 Nordeste 25 Nordeste 0 948.9 1.8 80
2019-03-26 23:00:00 6.3 14 Nordeste 20 Nordeste 0 948.6 2.5 77
2019-03-26 22:00:00 5.2 3 Este 8 Oeste 0 947.7 2.3 63
2019-03-26 21:00:00 8.1 2 Sudeste 13 Sudeste 0 947.1 2.4 55
2019-03-26 20:00:00 9.8 11 Sudeste 20 Sur 0 946.1 1.7 53
2019-03-26 19:00:00 13.6 14 Este 35 Nordeste 0 945.4 1.1 39
2019-03-26 18:00:00 14.7 23 Nordeste 39 Nordeste 0 944.7 -0.1 34
2019-03-26 17:00:00 16 26 Nordeste 39 Nordeste 0 944.4 -0.7 38
2019-03-26 16:00:00 16.8 22 Nordeste 40 Nordeste 0 944.3 -1.3 31
2019-03-26 15:00:00 16.7 23 Nordeste 44 Nordeste 0 944.8 -1.1 32
2019-03-26 14:00:00 16.1 24 Nordeste 40 Nordeste 0 945.1 -1 36
2019-03-26 13:00:00 15.4 24 Nordeste 41 Nordeste 0 945.6 -0.5 39
2019-03-26 12:00:00 14.2 27 Nordeste 42 Nordeste 0 945.9 0.3 43
2019-03-26 11:00:00 13 30 Nordeste 49 Nordeste 0 946.1 1.1 52
2019-03-26 10:00:00 11.6 24 Nordeste 38 Nordeste 0 946.1 1.9 60
2019-03-26 09:00:00 10.3 19 Este 29 Este 0 945.6 1.8 63
2019-03-26 08:00:00 7.6 9 Este 15 Nordeste 0 945 1.4 58
2019-03-26 07:00:00 2.9 3 Este 9 Norte 0 944.2 0.7 66
2019-03-26 06:00:00 1 4 Sudoeste 10 Sudoeste 0 943.8 0 70
2019-03-26 05:00:00 0.2 0 Calma 4 Sudoeste 0 943.6 -0.5 67
2019-03-26 04:00:00 1.1 3 Oeste 7 Sudoeste 0 943.5 -0.8 65
2019-03-26 03:00:00 1.9 2 Oeste 8 Oeste 0 943.8 -0.7 61
2019-03-26 02:00:00 3.3 8 Oeste 11 Oeste 0 944.1 -0.2 59
2019-03-26 01:00:00 4.8 10 Oeste 13 Sudoeste 0 944.3 0.2 55
2019-03-26 00:00:00 5.8 9 Oeste 12 Oeste 0 944.5 0.8 51
2019-03-25 23:00:00 7.4 6 Oeste 15 Oeste 0 944.3 0.8 45
2019-03-25 22:00:00 9.1 13 Oeste 17 Oeste 0 944.1 1 40
2019-03-25 21:00:00 11.1 9 Oeste 13 Sudoeste 0 943.7 1 36
2019-03-25 20:00:00 14.8 6 Oeste 17 Este 0 943.5 0.6 29
2019-03-25 19:00:00 18.2 10 Este 19 Este 0 943.1 -0.3 22
2019-03-25 18:00:00 20.2 11 Este 23 Nordeste 0 942.7 -1.3 19
2019-03-25 17:00:00 20.8 15 Este 23 Nordeste 0 942.9 -2.1 15
2019-03-25 16:00:00 21.5 8 Nordeste 22 Este 0 943.4 -2.3 15
2019-03-25 15:00:00 21.1 5 Noroeste 21 Sudeste 0 944 -2.4 14
2019-03-25 14:00:00 20.7 9 Nordeste 23 Este 0 945 -2 14
2019-03-25 13:00:00 19.9 10 Este 24 Nordeste 0 945.7 -1.3 14
2019-03-25 12:00:00 19.2 12 Este 21 Sudeste 0 946.4 -0.4 16
2019-03-25 11:00:00 17.4 8 Este 14 Este 0 947 0.1 20
2019-03-25 10:00:00 15 4 Este 8 Este 0 947 0.3 25
2019-03-25 09:00:00 10.5 3 Sudeste 7 Sudoeste 0 946.8 0.4 37
2019-03-25 08:00:00 3.7 2 Oeste 9 Sudoeste 0 946.9 0.4 61
2019-03-25 07:00:00 0.9 7 Sudoeste 10 Sudoeste 0 946.7 -0.2 68
2019-03-25 06:00:00 0.3 0 Calma 8 Oeste 0 946.4 -1 69
2019-03-25 05:00:00 1.1 4 Oeste 8 Oeste 0 946.5 -1.2 69
2019-03-25 04:00:00 2.4 5 Sudoeste 6 Sudoeste 0 946.9 -0.8 67
2019-03-25 03:00:00 4 5 Sudoeste 11 Oeste 0 947.4 -0.7 62
2019-03-25 02:00:00 3.9 5 Oeste 16 Oeste 0 947.7 -0.7 61
2019-03-25 01:00:00 5.8 8 Oeste 15 Oeste 0 947.7 -0.6 55
2019-03-25 00:00:00 7.3 14 Oeste 16 Oeste 0 948.1 0 50
2019-03-24 23:00:00 7 9 Oeste 13 Oeste 0 948.4 0.7 50
2019-03-24 22:00:00 9 13 Oeste 14 Oeste 0 948.3 0.8 44
2019-03-24 21:00:00 10.2 8 Oeste 12 Oeste 0 948.1 0.8 41
2019-03-24 20:00:00 12.6 3 Sudoeste 10 Sudeste 0 947.7 0.5 34
2019-03-24 19:00:00 16 9 Sudeste 17 Sudeste 0 947.5 0.2 28
2019-03-24 18:00:00 17.5 12 Sudeste 25 Sudeste 0 947.3 -0.4 25
2019-03-24 17:00:00 18 13 Sur 27 Sudeste 0 947.2 -1.2 29
2019-03-24 16:00:00 20.1 9 Este 28 Sur 0 947.3 -2 26
2019-03-24 15:00:00 18.6 13 Nordeste 28 Este 0 947.7 -2.1 28
2019-03-24 14:00:00 18.5 10 Este -- -- 0 948.4 -1.6 28
2019-03-24 13:00:00 18.2 12 Este 24 Este 0 949.3 -0.8 30
2019-03-24 12:00:00 16.9 10 Este 23 Nordeste 0 949.8 0.1 33
2019-03-24 11:00:00 15.5 10 Este 20 Este 0 950 0.4 36
2019-03-24 10:00:00 12.8 6 Nordeste 10 Este 0 950.1 1 47
2019-03-24 09:00:00 9.2 0 Calma 4 Sudoeste 0 949.7 0.5 69
2019-03-24 08:00:00 2.9 4 Sudoeste 7 Sudoeste 0 949.6 0.5 88
2019-03-24 07:00:00 1.6 3 Oeste 8 Oeste 0 949.1 0 87
2019-03-24 06:00:00 2 2 Noroeste 9 Oeste 0 949.2 -0.2 86
2019-03-24 05:00:00 2.2 2 Oeste 11 Sudoeste 0 949.1 -0.4 84
2019-03-24 04:00:00 3 0 Calma 14 Oeste 0 949.1 -0.7 82
2019-03-24 03:00:00 3.3 7 Oeste 12 Oeste 0 949.4 -0.8 82
2019-03-24 02:00:00 4.2 10 Oeste 13 Sudoeste 0 949.5 -0.9 83
2019-03-24 01:00:00 4 5 Oeste 11 Oeste 0 949.8 -0.6 81
2019-03-24 00:00:00 4.8 9 Oeste 12 Oeste 0 950.2 -0.1 81
2019-03-23 23:00:00 5.5 4 Oeste 6 Oeste 0 950.4 0.5 77
2019-03-23 22:00:00 7.5 3 Sur 8 Sudeste 0 950.4 0.9 71
2019-03-23 21:00:00 10.6 4 Este 19 Este 0 950.3 1.2 66
2019-03-23 20:00:00 12.1 5 Sudeste 17 Sudeste 0 949.9 0.6 61
2019-03-23 19:00:00 13.2 12 Sudeste 18 Sudeste 0 949.5 -0.1 53
2019-03-23 18:00:00 14.1 11 Este 25 Nordeste 0 949.1 -1 49
2019-03-23 17:00:00 14.6 8 Sudeste 18 Este 0 949.3 -1.2 47
2019-03-23 16:00:00 14.3 5 Sudeste 15 Sudeste 0 949.6 -1.3 49
2019-03-23 15:00:00 14.2 10 Sudeste 23 Este 0 950.1 -1.1 49
2019-03-23 14:00:00 12.7 15 Nordeste 30 Nordeste 0 950.5 -1.1 52
2019-03-23 13:00:00 13.1 17 Este 29 Nordeste 0 950.9 -0.8 52
2019-03-23 12:00:00 12.6 12 Nordeste 21 Nordeste 0 951.2 -0.2 53
2019-03-23 11:00:00 10.9 14 Nordeste 21 Nordeste 0 951.6 0.1 54
2019-03-23 10:00:00 10.4 10 Este 18 Este 0 951.7 0.8 61
2019-03-23 09:00:00 8.9 12 Nordeste 19 Nordeste 0 951.4 0.7 70
2019-03-23 08:00:00 8.5 7 Este 16 Nordeste 0 951.5 0.6 66
2019-03-23 07:00:00 8.2 9 Nordeste 23 Nordeste 0 950.9 0.1 60
2019-03-23 06:00:00 8.4 15 Nordeste 23 Nordeste 0 950.7 -0.4 56
2019-03-23 05:00:00 8.6 9 Nordeste 21 Este 0 950.9 -0.3 50
2019-03-23 04:00:00 8.6 10 Nordeste 17 Nordeste 0 950.8 -0.5 49
2019-03-23 03:00:00 7.1 3 Sudeste 10 Sur 0 951.1 -0.8 55
2019-03-23 02:00:00 5.9 8 Sudeste 13 Sudeste 0 951.2 -0.9 60
2019-03-23 01:00:00 6.2 3 Sudeste 7 Sudeste 0 951.3 -0.7 58
2019-03-23 00:00:00 8 4 Sudeste 18 Norte 0 951.9 0.1 54
2019-03-22 23:00:00 10.1 12 Nordeste 19 Norte 0 952.1 0.8 48
2019-03-22 22:00:00 10 7 Nordeste 22 Nordeste 0 952 1.1 51
2019-03-22 21:00:00 10.6 14 Nordeste 23 Nordeste 0 951.8 1.5 50
2019-03-22 20:00:00 11.1 12 Nordeste 33 Nordeste 0 951.3 0.9 51
2019-03-22 19:00:00 12.6 21 Nordeste 35 Nordeste 0 950.9 0.4 47
2019-03-22 18:00:00 13.9 22 Nordeste 37 Nordeste 0 950.3 -0.4 44
2019-03-22 17:00:00 14.6 22 Nordeste 37 Nordeste 0 950.4 -0.6 40
2019-03-22 16:00:00 14.9 29 Nordeste 42 Nordeste 0 950.5 -1 34
2019-03-22 15:00:00 15.2 27 Nordeste 46 Nordeste 0 950.7 -1.2 31
2019-03-22 14:00:00 14.6 24 Nordeste 40 Nordeste 0 951 -1.1 32
2019-03-22 13:00:00 13.8 22 Este 40 Nordeste 0 951.5 -0.6 32
2019-03-22 12:00:00 12.9 24 Este 44 Nordeste 0 951.9 0.4 32
2019-03-22 11:00:00 12 18 Nordeste 39 Nordeste 0 952.1 0.6 33
2019-03-22 10:00:00 9.9 14 Nordeste 24 Nordeste 0 952.1 0.9 43
2019-03-22 09:00:00 7.8 13 Nordeste 21 Nordeste 0 951.5 0.4 51
2019-03-22 08:00:00 3.2 3 Este 8 Sudeste 0 951.5 0.5 86
2019-03-22 07:00:00 2.2 3 Sudeste 7 Sudeste 0 951.2 0.1 85
2019-03-22 06:00:00 3.4 3 Sudoeste 19 Norte 0 951.1 -0.3 81
2019-03-22 05:00:00 3.4 6 Nordeste 17 Norte 0 951 -0.5 85
2019-03-22 04:00:00 3.3 2 Sur 22 Norte 0 951.1 -0.8 78
2019-03-22 03:00:00 5.4 15 Norte 24 Norte 0 951.4 -0.8 77
2019-03-22 02:00:00 5.6 16 Norte 24 Norte 0 951.5 -0.7 77
2019-03-22 01:00:00 6 14 Nordeste 22 Norte 0 951.9 -0.2 75
2019-03-22 00:00:00 5.4 6 Nordeste 23 Nordeste 0 952.2 0.3 75
2019-03-21 23:00:00 6.3 15 Nordeste 22 Nordeste 0 952.2 0.9 72
2019-03-21 22:00:00 6.4 12 Nordeste 19 Nordeste 0 952.1 1.2 59
2019-03-21 21:00:00 7.2 12 Nordeste 17 Nordeste 0 951.9 1.3 49
2019-03-21 20:00:00 8.3 13 Nordeste 26 Nordeste 0 951.3 0.9 45
2019-03-21 19:00:00 9.8 18 Nordeste 35 Nordeste 0 950.9 0.4 38
2019-03-21 18:00:00 11.1 23 Nordeste 37 Nordeste 0 950.6 -0.1 34
2019-03-21 17:00:00 12.2 23 Nordeste 38 Nordeste 0 950.4 -1 34
2019-03-21 16:00:00 12.3 24 Nordeste 41 Nordeste 0 950.5 -1.4 32
2019-03-21 15:00:00 13.3 25 Nordeste 43 Nordeste 0 950.7 -1.4 28
2019-03-21 14:00:00 12.4 22 Nordeste 44 Nordeste 0 951.4 -0.9 30
2019-03-21 13:00:00 12 28 Nordeste 45 Nordeste 0 951.9 -0.5 29
2019-03-21 12:00:00 11.6 24 Nordeste 44 Nordeste 0 952.1 -0.1 29
2019-03-21 11:00:00 10.5 23 Nordeste 36 Nordeste 0 952.3 0.3 33
2019-03-21 10:00:00 8.8 11 Nordeste 20 Norte 0 952.4 0.7 46
2019-03-21 09:00:00 6.3 5 Este 9 Este 0 952.2 0.9 74
2019-03-21 08:00:00 2.7 5 Sudeste 23 Norte 0 952 0.9 87
2019-03-21 07:00:00 0.3 4 Sudoeste 8 Sudoeste 0 951.7 0.4 90
2019-03-21 06:00:00 -0.7 3 Sudoeste 7 Sudeste 0 951.3 -0.7 89
2019-03-21 05:00:00 -0.1 4 Sudoeste 8 Sudeste 0 951.1 -1.3 86
2019-03-21 04:00:00 0.9 4 Sudeste 9 Sudeste 0 951.3 -1.5 87
2019-03-21 03:00:00 1.2 3 Nordeste 8 Sudoeste 0 952 -0.9 88
2019-03-21 02:00:00 0.7 4 Sudoeste 8 Sudeste 0 952.4 -0.6 86
2019-03-21 01:00:00 0.6 0 Calma 7 Sudoeste 0 952.8 0.2 83
2019-03-21 00:00:00 3.7 5 Este 12 Nordeste 0 952.9 0.7 75
2019-03-20 23:00:00 4.6 6 Este 17 Nordeste 0 953 1.5 70
2019-03-20 22:00:00 6.1 12 Nordeste 19 Nordeste 0 952.6 1.6 66
2019-03-20 21:00:00 7.4 10 Nordeste 25 Este 0 952.2 1.8 57
2019-03-20 20:00:00 8.6 12 Este 33 Nordeste 0 951.5 1.1 50
2019-03-20 19:00:00 10 20 Nordeste 32 Este 0 951 0.4 44
2019-03-20 18:00:00 11.6 15 Este 23 Este 0 950.4 -0.7 35
2019-03-20 17:00:00 11.7 15 Nordeste 26 Nordeste 0 950.4 -1.5 38
2019-03-20 16:00:00 11.8 8 Este 22 Sudeste 0 950.6 -1.8 40
2019-03-20 15:00:00 10.5 12 Este 23 Este 0 951.1 -1.2 48
2019-03-20 14:00:00 9.6 12 Este 22 Este 0 951.9 -0.4 58
2019-03-20 13:00:00 9.1 12 Este 27 Este 0 952.4 0.4 57
2019-03-20 12:00:00 12.1 17 Nordeste 29 Este 0 952.3 0.6 41
2019-03-20 11:00:00 9.9 18 Nordeste 28 Nordeste 0 952.3 0.6 52
2019-03-20 10:00:00 9.1 12 Nordeste 23 Norte 0 952 1.1 59
2019-03-20 09:00:00 6.2 10 Norte 23 Nordeste 0 951.7 1.2 77
2019-03-20 08:00:00 5.3 9 Nordeste 26 Nordeste 0 951.7 1.4 77
2019-03-20 07:00:00 5.1 7 Este 15 Norte 0 950.9 0.6 73
2019-03-20 06:00:00 3.2 5 Sudeste 8 Oeste 0 950.5 -0.4 73
2019-03-20 05:00:00 2.3 2 Sudoeste 7 Sudoeste 0 950.3 -0.8 74
2019-03-20 04:00:00 2.5 4 Sudoeste 8 Oeste 0 950.3 -0.7 67
2019-03-20 03:00:00 4.2 6 Sudoeste 9 Oeste 0 950.9 0.1 63
2019-03-20 02:00:00 4.5 4 Sudoeste 5 Oeste 0 951.1 0.6 65
2019-03-20 01:00:00 5.3 5 Oeste 10 Oeste 0 951 0.8 64
2019-03-20 00:00:00 5.7 9 Oeste 12 Oeste 0 950.8 1.1 54
2019-03-19 23:00:00 6.5 3 Sur 10 Norte 0 950.5 1.5 47
2019-03-19 22:00:00 8.2 7 Nordeste 19 Nordeste 0 950.2 2.3 45
2019-03-19 21:00:00 9.5 8 Este 20 Este 0 949.7 2.6 39
2019-03-19 20:00:00 10.1 14 Este 24 Nordeste 0 949 2.3 39
2019-03-19 19:00:00 11 18 Nordeste 28 Nordeste 0 947.9 1.3 38
2019-03-19 18:00:00 12.6 16 Nordeste 31 Este 0 947.1 0.5 33
2019-03-19 17:00:00 13.3 13 Este 28 Nordeste 0 946.7 -0.3 28
2019-03-19 16:00:00 12.9 17 Nordeste 30 Nordeste 0 946.6 -0.8 30
2019-03-19 15:00:00 13.4 13 Nordeste 30 Nordeste 0 946.6 -0.9 31
2019-03-19 14:00:00 13.3 19 Nordeste 33 Norte 0 947 -0.8 29
2019-03-19 13:00:00 12.9 20 Nordeste 48 Nordeste 0 947.4 -0.4 32
2019-03-19 12:00:00 11.8 19 Nordeste 37 Norte 0 947.5 -0.7 35
2019-03-19 11:00:00 10.2 12 Norte 31 Norte 0 947.8 0.2 45
2019-03-19 10:00:00 8.5 15 Nordeste 21 Norte 0 947.8 0.1 48
2019-03-19 09:00:00 6.8 9 Nordeste 33 Norte 0 948.2 0.9 62
2019-03-19 08:00:00 6.8 17 Norte 30 Norte 0 947.6 0.2 55
2019-03-19 07:00:00 7 18 Norte 26 Norte 0 947.7 0.3 68
2019-03-19 06:00:00 5.2 4 Sudeste 13 Sudeste 0 947.3 -0.9 86
2019-03-19 05:00:00 4.3 3 Norte 7 Sudoeste 0 947.4 -1.2 85
2019-03-19 04:00:00 5.3 4 Oeste 9 Oeste 0 947.4 -1.5 83
2019-03-19 03:00:00 5.9 2 Sudoeste 6 Este 0 948.2 -1 79
2019-03-19 02:00:00 7.6 2 Este 6 Nordeste 0 948.6 -0.7 75
2019-03-19 01:00:00 8.3 5 Nordeste 13 Sudoeste 0 948.9 -0.1 74
2019-03-19 00:00:00 8.1 6 Oeste 8 Oeste 0 949.2 0.7 75